createdAt,value
2023-01-07T00:01:00.788Z,22.20
2023-01-07T00:04:06.137Z,45.40
2023-01-07T00:07:11.834Z,51.65
2023-01-07T00:10:15.855Z,43.92
2023-01-07T00:13:19.541Z,24.20
2023-01-07T00:16:25.637Z,49.28
2023-01-07T00:19:29.318Z,63.80
2023-01-07T00:22:33.255Z,56.83
2023-01-07T00:25:36.137Z,36.70
2023-01-07T00:28:42.509Z,38.78
2023-01-07T00:31:46.262Z,42.73
2023-01-07T00:34:49.970Z,52.80
2023-01-07T00:37:54.963Z,63.72
2023-01-07T00:40:58.013Z,78.78
2023-01-07T00:47:21.832Z,57.25
2023-01-07T00:50:46.998Z,42.55
2023-01-07T00:53:49.994Z,33.13
2023-01-07T00:56:53.749Z,26.58
2023-01-07T01:00:15.908Z,35.70
2023-01-07T01:03:20.059Z,30.90
2023-01-07T01:06:23.040Z,36.70
2023-01-07T01:09:27.590Z,32.00
2023-01-07T01:12:30.500Z,45.88
2023-01-07T01:15:33.773Z,32.42
2023-01-07T01:18:37.353Z,19.55
2023-01-07T01:21:41.777Z,56.55
2023-01-07T01:24:44.708Z,42.13
2023-01-07T01:27:47.645Z,46.45
2023-01-07T01:30:56.535Z,61.15
2023-01-07T01:34:02.185Z,57.63
2023-01-07T01:40:30.115Z,55.58
2023-01-07T01:43:37.636Z,70.30
2023-01-07T01:46:46.082Z,69.22
2023-01-07T01:50:01.685Z,73.28
2023-01-07T01:53:26.546Z,36.80
2023-01-07T01:56:35.120Z,56.00
2023-01-07T01:59:43.088Z,37.17
2023-01-07T02:03:11.880Z,61.25
2023-01-07T02:06:26.432Z,68.87
2023-01-07T02:09:30.905Z,59.53
2023-01-07T02:13:13.468Z,49.05
2023-01-07T02:16:34.847Z,63.70
2023-01-07T02:20:05.674Z,55.42
2023-01-07T02:23:24.533Z,55.22
2023-01-07T02:26:40.206Z,47.92
2023-01-07T02:30:20.931Z,50.37
2023-01-07T02:33:43.267Z,71.88
2023-01-07T02:36:49.517Z,61.58
2023-01-07T02:39:58.345Z,62.30
2023-01-07T02:43:10.998Z,64.88
2023-01-07T02:46:21.457Z,94.65
2023-01-07T02:52:45.972Z,54.75
2023-01-07T02:56:15.390Z,61.70
2023-01-07T02:59:33.020Z,62.63
2023-01-07T03:02:53.239Z,25.73
2023-01-07T03:06:06.809Z,57.03
2023-01-07T03:09:51.011Z,89.20
2023-01-07T03:13:09.398Z,49.97
2023-01-07T03:16:33.202Z,43.92
2023-01-07T03:19:40.553Z,76.70
2023-01-07T03:26:31.608Z,89.15
2023-01-07T03:29:36.421Z,59.63
2023-01-07T03:36:28.855Z,77.43
2023-01-07T03:39:35.328Z,70.72
2023-01-07T03:42:42.866Z,55.90
2023-01-07T03:45:58.000Z,45.90
2023-01-07T03:49:04.344Z,60.30
2023-01-07T03:52:09.005Z,77.38
2023-01-07T03:55:13.079Z,62.78
2023-01-07T03:58:16.020Z,83.22
2023-01-07T04:01:20.857Z,110.55
2023-01-07T04:04:24.633Z,133.30
2023-01-07T04:07:27.612Z,65.83
2023-01-07T04:10:30.564Z,71.13
2023-01-07T04:13:34.267Z,77.68
2023-01-07T04:16:38.594Z,102.80
2023-01-07T04:19:43.850Z,48.90
2023-01-07T04:22:46.954Z,57.38
2023-01-07T04:25:51.009Z,59.17
2023-01-07T04:28:58.008Z,69.93
2023-01-07T04:32:20.963Z,53.50
2023-01-07T04:35:25.672Z,53.55
2023-01-07T04:38:29.465Z,54.13
2023-01-07T04:41:51.314Z,63.70
2023-01-07T04:44:55.211Z,46.95
2023-01-07T04:47:58.922Z,58.10
2023-01-07T04:54:24.509Z,62.55
2023-01-07T04:57:28.560Z,64.97
2023-01-07T05:03:53.968Z,71.85
2023-01-07T05:06:56.838Z,60.83
2023-01-07T05:10:01.779Z,45.40
2023-01-07T05:13:07.155Z,48.60
2023-01-07T05:16:11.913Z,33.33
2023-01-07T05:19:15.904Z,71.60
2023-01-07T05:22:23.118Z,88.25
2023-01-07T05:25:26.717Z,55.30
2023-01-07T05:28:31.148Z,46.08
2023-01-07T05:31:34.279Z,61.30
2023-01-07T05:34:38.007Z,37.85
2023-01-07T05:37:40.991Z,60.30
2023-01-07T05:44:08.547Z,47.67
2023-01-07T05:47:11.407Z,86.70
2023-01-07T05:50:15.479Z,34.23
2023-01-07T05:53:19.622Z,49.47
2023-01-07T05:56:23.517Z,35.63
2023-01-07T05:59:27.028Z,49.95
2023-01-07T06:02:30.624Z,37.42
2023-01-07T06:05:37.051Z,74.95
2023-01-07T06:08:40.488Z,74.30
2023-01-07T06:11:43.762Z,60.73
2023-01-07T06:14:46.696Z,46.78
2023-01-07T06:17:49.682Z,96.80
2023-01-07T06:20:52.584Z,52.87
2023-01-07T06:27:35.732Z,114.57
2023-01-07T06:30:38.712Z,59.00
2023-01-07T06:33:41.783Z,49.75
2023-01-07T06:36:45.753Z,51.20
2023-01-07T06:39:49.324Z,79.90
2023-01-07T06:42:53.428Z,99.60
2023-01-07T06:46:15.849Z,48.10
2023-01-07T06:49:19.451Z,123.95
2023-01-07T06:52:22.785Z,86.90
2023-01-07T06:55:25.656Z,60.22
2023-01-07T06:58:28.981Z,72.78
2023-01-07T07:01:31.999Z,33.88
2023-01-07T07:04:53.584Z,44.65
2023-01-07T07:07:57.066Z,41.53
2023-01-07T07:11:00.337Z,59.03
2023-01-07T07:14:04.502Z,51.80
2023-01-07T07:17:25.844Z,29.58
2023-01-07T07:20:28.807Z,47.75
2023-01-07T07:23:31.713Z,25.10
2023-01-07T07:26:34.935Z,49.35
2023-01-07T07:29:39.078Z,40.33
2023-01-07T07:32:42.625Z,44.58
2023-01-07T07:35:46.563Z,63.08
2023-01-07T07:38:50.352Z,88.57
2023-01-07T07:41:54.036Z,69.22
2023-01-07T07:44:58.422Z,49.53
2023-01-07T07:48:19.834Z,55.28
2023-01-07T07:51:22.742Z,65.03
2023-01-07T07:54:45.399Z,43.73
2023-01-07T07:57:49.161Z,95.05
2023-01-07T08:00:54.460Z,63.10
2023-01-07T08:03:59.205Z,40.92
2023-01-07T08:07:03.062Z,49.35
2023-01-07T08:10:07.945Z,82.30
2023-01-07T08:13:11.921Z,47.70
2023-01-07T08:16:15.252Z,65.83
2023-01-07T08:19:19.154Z,100.95
2023-01-07T08:22:22.387Z,34.60
2023-01-07T08:25:26.296Z,76.80
2023-01-07T08:28:48.523Z,34.72
2023-01-07T08:32:10.323Z,62.97
2023-01-07T08:35:13.386Z,48.35
2023-01-07T08:38:17.247Z,37.97
2023-01-07T08:41:22.532Z,40.25
2023-01-07T08:44:26.482Z,23.80
2023-01-07T08:47:31.086Z,44.80
2023-01-07T08:50:35.291Z,24.65
2023-01-07T08:56:59.664Z,67.20
2023-01-07T09:00:03.663Z,84.00
2023-01-07T09:03:07.485Z,71.82
2023-01-07T09:06:11.123Z,59.95
2023-01-07T09:09:17.362Z,29.17
2023-01-07T09:12:21.076Z,59.97
2023-01-07T09:15:24.470Z,90.07
2023-01-07T09:18:27.688Z,63.73
2023-01-07T09:21:31.661Z,65.05
2023-01-07T09:24:35.317Z,44.85
2023-01-07T09:27:58.129Z,53.87
2023-01-07T09:31:01.403Z,81.68
2023-01-07T09:35:07.646Z,60.00
2023-01-07T09:38:30.466Z,60.72
2023-01-07T09:41:58.246Z,35.45
2023-01-07T09:45:11.374Z,49.13
2023-01-07T09:48:45.907Z,75.10
2023-01-07T09:51:56.663Z,56.33
2023-01-07T09:55:07.452Z,86.47
2023-01-07T09:58:29.628Z,34.65
2023-01-07T10:01:57.089Z,36.63
2023-01-07T10:05:19.528Z,62.33
2023-01-07T10:09:18.537Z,35.03
2023-01-07T10:12:27.240Z,77.22
2023-01-07T10:16:07.097Z,83.60
2023-01-07T10:19:29.650Z,44.42
2023-01-07T10:22:37.902Z,49.85
2023-01-07T10:25:45.238Z,112.87
2023-01-07T10:29:12.366Z,111.45
2023-01-07T10:32:37.664Z,112.47
2023-01-07T10:36:24.549Z,45.57
2023-01-07T10:39:36.024Z,47.38
2023-01-07T10:43:00.733Z,41.92
2023-01-07T10:46:32.440Z,71.07
2023-01-07T10:49:58.751Z,42.40
2023-01-07T10:53:30.090Z,95.70
2023-01-07T10:57:07.325Z,50.75
2023-01-07T11:00:16.450Z,77.90
2023-01-07T11:03:22.925Z,100.65
2023-01-07T11:06:46.936Z,45.17
2023-01-07T11:09:50.839Z,181.37
2023-01-07T11:12:56.819Z,133.30
2023-01-07T11:16:29.871Z,125.50
2023-01-07T11:19:49.646Z,64.30
2023-01-07T11:22:53.164Z,63.40
2023-01-07T11:26:06.850Z,52.03
2023-01-07T11:29:16.302Z,58.95
2023-01-07T11:32:28.944Z,68.33
2023-01-07T11:35:35.146Z,93.53
2023-01-07T11:38:39.523Z,158.02
2023-01-07T11:41:53.715Z,147.70
2023-01-07T11:45:45.145Z,111.90
2023-01-07T11:49:40.779Z,39.42
2023-01-07T11:53:03.810Z,66.75
2023-01-07T11:56:28.952Z,33.75
2023-01-07T11:59:32.611Z,93.00
2023-01-07T12:02:36.828Z,81.18
2023-01-07T12:05:45.672Z,143.87
2023-01-07T12:09:03.812Z,82.43
2023-01-07T12:12:40.683Z,112.65
2023-01-07T12:16:07.958Z,52.80
2023-01-07T12:19:52.484Z,38.78
2023-01-07T12:23:16.295Z,46.65
2023-01-07T12:26:43.732Z,91.55
2023-01-07T12:30:36.165Z,76.47
2023-01-07T12:34:00.746Z,80.47
2023-01-07T12:37:57.713Z,71.60
2023-01-07T12:41:22.416Z,76.87
2023-01-07T12:44:26.231Z,58.30
2023-01-07T12:47:52.110Z,53.85
2023-01-07T12:50:59.013Z,47.20
2023-01-07T12:54:05.432Z,32.67
2023-01-07T12:57:25.107Z,32.33
2023-01-07T13:00:32.752Z,44.00
2023-01-07T13:04:14.704Z,37.78
2023-01-07T13:07:28.406Z,61.92
2023-01-07T13:11:11.331Z,53.17
2023-01-07T13:14:44.495Z,46.90
2023-01-07T13:17:50.755Z,16.77
2023-01-07T13:21:09.306Z,34.60
2023-01-07T13:24:56.572Z,29.37
2023-01-07T13:28:09.369Z,46.42
2023-01-07T13:31:30.120Z,39.92
2023-01-07T13:34:52.944Z,37.25
2023-01-07T13:38:12.800Z,28.65
2023-01-07T13:41:28.028Z,36.28
2023-01-07T13:44:45.013Z,41.95
2023-01-07T13:48:17.848Z,44.80
2023-01-07T13:51:32.040Z,33.35
2023-01-07T13:54:55.434Z,56.13
2023-01-07T13:57:58.529Z,46.07
2023-01-07T14:01:25.300Z,37.45
2023-01-07T14:04:37.263Z,41.75
2023-01-07T14:07:53.404Z,37.55
2023-01-07T14:10:57.367Z,42.25
2023-01-07T14:14:32.127Z,42.53
2023-01-07T14:18:07.313Z,38.30
2023-01-07T14:21:21.952Z,42.80
2023-01-07T14:24:43.356Z,43.38
2023-01-07T14:28:17.635Z,47.03
2023-01-07T14:31:27.174Z,45.13
2023-01-07T14:35:02.095Z,47.50
2023-01-07T14:38:32.434Z,50.72
2023-01-07T14:41:36.576Z,60.25
2023-01-07T14:45:02.298Z,70.78
2023-01-07T14:48:11.300Z,63.90
2023-01-07T14:51:56.472Z,67.43
2023-01-07T14:55:24.844Z,55.37
2023-01-07T14:58:53.543Z,46.42
2023-01-07T15:02:16.832Z,50.95
2023-01-07T15:05:31.871Z,43.27
2023-01-07T15:09:06.552Z,37.15
2023-01-07T15:12:38.249Z,34.95
2023-01-07T15:16:05.832Z,31.13
2023-01-07T15:19:10.464Z,22.08
2023-01-07T15:22:32.648Z,19.08
2023-01-07T15:25:41.695Z,12.75
2023-01-07T15:28:54.845Z,7.70
2023-01-07T15:32:04.611Z,7.15
2023-01-07T15:35:16.384Z,7.00
2023-01-07T15:38:36.236Z,7.77
2023-01-07T15:41:58.839Z,7.85
2023-01-07T15:45:22.750Z,7.63
2023-01-07T15:48:26.008Z,6.40
2023-01-07T15:51:33.315Z,6.80
2023-01-07T15:54:40.528Z,6.90
2023-01-07T15:58:06.146Z,5.75
2023-01-07T16:01:28.877Z,5.63
2023-01-07T16:04:37.532Z,7.32
2023-01-07T16:08:00.635Z,5.15
2023-01-07T16:11:09.669Z,5.23
2023-01-07T16:14:21.842Z,3.80
2023-01-07T16:17:25.829Z,5.72
2023-01-07T16:20:36.195Z,4.10
2023-01-07T16:23:41.504Z,2.97
2023-01-07T16:27:05.613Z,5.10
2023-01-07T16:30:15.821Z,4.38
2023-01-07T16:33:44.803Z,4.30
2023-01-07T16:36:47.899Z,5.18
2023-01-07T16:41:29.902Z,3.72
2023-01-07T16:45:00.418Z,3.45
2023-01-07T16:48:20.573Z,5.00
2023-01-07T16:51:40.821Z,5.15
2023-01-07T16:55:03.663Z,4.80
2023-01-07T16:58:30.869Z,5.10
2023-01-07T17:01:35.766Z,5.30
2023-01-07T17:04:39.823Z,5.37
2023-01-07T17:07:47.678Z,4.63
2023-01-07T17:11:08.465Z,4.60
2023-01-07T17:14:38.725Z,4.65
2023-01-07T17:18:12.784Z,4.13
2023-01-07T17:21:40.126Z,3.30
2023-01-07T17:25:23.042Z,2.90
2023-01-07T17:28:52.782Z,5.27
2023-01-07T17:31:55.785Z,3.65
2023-01-07T17:35:04.164Z,4.20
2023-01-07T17:38:13.239Z,4.10
2023-01-07T17:41:55.713Z,3.08
2023-01-07T17:44:59.831Z,2.75
2023-01-07T17:48:04.874Z,3.15
2023-01-07T17:51:28.385Z,2.63
2023-01-07T17:54:49.647Z,3.08
2023-01-07T17:57:54.219Z,4.10
2023-01-07T18:00:59.695Z,4.47
2023-01-07T18:04:04.090Z,4.20
2023-01-07T18:07:13.336Z,4.70
2023-01-07T18:10:22.329Z,4.67
2023-01-07T18:13:27.025Z,4.65
2023-01-07T18:16:30.281Z,3.95
2023-01-07T18:19:34.844Z,3.90
2023-01-07T18:22:57.623Z,4.65
2023-01-07T18:26:00.563Z,4.30
2023-01-07T18:29:04.865Z,3.85
2023-01-07T18:32:08.576Z,3.67
2023-01-07T18:35:14.386Z,4.40
2023-01-07T18:38:18.121Z,4.15
2023-01-07T18:41:21.520Z,3.90
2023-01-07T18:44:25.172Z,4.05
2023-01-07T18:47:28.218Z,4.35
2023-01-07T18:50:31.130Z,3.45
2023-01-07T18:53:34.514Z,7.78
2023-01-07T18:56:37.466Z,5.88
2023-01-07T18:59:40.916Z,5.40
2023-01-07T19:02:43.993Z,6.17
2023-01-07T19:05:47.553Z,6.85
2023-01-07T19:08:51.344Z,5.00
2023-01-07T19:11:54.311Z,6.33
2023-01-07T19:14:57.597Z,5.20
2023-01-07T19:18:01.442Z,4.68
2023-01-07T19:21:08.828Z,5.22
2023-01-07T19:24:12.093Z,3.65
2023-01-07T19:27:16.811Z,3.72
2023-01-07T19:30:38.192Z,4.93
2023-01-07T19:33:42.453Z,3.03
2023-01-07T19:36:47.782Z,3.45
2023-01-07T19:39:51.295Z,3.17
2023-01-07T19:42:54.352Z,3.67
2023-01-07T19:45:58.055Z,2.58
2023-01-07T19:49:01.954Z,3.58
2023-01-07T19:52:08.176Z,2.92
2023-01-07T19:55:29.781Z,2.67
2023-01-07T19:58:34.235Z,2.45
2023-01-07T20:01:39.451Z,3.78
2023-01-07T20:04:44.026Z,5.97
2023-01-07T20:07:47.311Z,7.15
2023-01-07T20:10:58.236Z,6.10
2023-01-07T20:14:01.297Z,7.77
2023-01-07T20:17:06.486Z,8.65
2023-01-07T20:20:11.746Z,5.22
2023-01-07T20:23:15.479Z,8.02
2023-01-07T20:26:20.884Z,4.20
2023-01-07T20:29:24.370Z,4.22
2023-01-07T20:32:27.376Z,4.22
2023-01-07T20:35:30.614Z,4.93
2023-01-07T20:38:35.902Z,5.15
2023-01-07T20:41:58.595Z,4.45
2023-01-07T20:45:02.293Z,4.67
2023-01-07T20:48:06.472Z,3.53
2023-01-07T20:51:11.879Z,4.55
2023-01-07T20:54:17.316Z,6.05
2023-01-07T20:57:21.082Z,9.40
2023-01-07T21:00:24.855Z,5.15
2023-01-07T21:03:29.014Z,7.18
2023-01-07T21:06:32.913Z,6.50
2023-01-07T21:09:36.892Z,5.97
2023-01-07T21:12:58.388Z,5.25
2023-01-07T21:16:04.028Z,5.97
2023-01-07T21:19:06.943Z,6.68
2023-01-07T21:22:09.772Z,7.20
2023-01-07T21:25:50.057Z,7.28
2023-01-07T21:29:12.578Z,7.50
2023-01-07T21:32:35.580Z,11.82
2023-01-07T21:35:42.223Z,12.18
2023-01-07T21:39:22.375Z,7.27
2023-01-07T21:42:26.342Z,8.65
2023-01-07T21:45:29.544Z,7.25
2023-01-07T21:48:33.939Z,7.43
2023-01-07T21:51:36.908Z,5.05
2023-01-07T21:54:43.313Z,8.95
2023-01-07T21:57:46.219Z,6.47
2023-01-07T22:00:54.306Z,5.63
2023-01-07T22:03:59.598Z,7.18
2023-01-07T22:07:03.267Z,6.20
2023-01-07T22:10:06.764Z,7.77
2023-01-07T22:13:11.035Z,14.00
2023-01-07T22:16:14.772Z,12.73
2023-01-07T22:19:18.784Z,15.77
2023-01-07T22:22:41.281Z,13.60
2023-01-07T22:26:08.525Z,11.00
2023-01-07T22:29:33.238Z,9.13
2023-01-07T22:32:54.728Z,10.32
2023-01-07T22:35:58.921Z,16.15
2023-01-07T22:39:27.308Z,12.98
2023-01-07T22:42:41.196Z,23.40
2023-01-07T22:46:19.965Z,15.68
2023-01-07T22:49:26.091Z,14.02
2023-01-07T22:52:47.640Z,12.03
2023-01-07T22:55:50.774Z,9.70
2023-01-07T22:58:54.032Z,13.32
2023-01-07T23:02:15.303Z,8.95
2023-01-07T23:05:18.475Z,8.02
2023-01-07T23:08:40.957Z,7.82
2023-01-07T23:11:49.573Z,8.10
2023-01-07T23:14:52.639Z,7.83
2023-01-07T23:17:55.940Z,7.38
2023-01-07T23:21:17.187Z,6.07
2023-01-07T23:24:20.824Z,7.10
2023-01-07T23:27:42.302Z,11.35
2023-01-07T23:30:45.874Z,10.57
2023-01-07T23:33:49.054Z,6.68
2023-01-07T23:37:11.519Z,8.32
2023-01-07T23:40:15.322Z,9.88
2023-01-07T23:43:19.713Z,9.18
2023-01-07T23:46:22.636Z,15.27
2023-01-07T23:49:25.712Z,15.45
2023-01-07T23:52:46.791Z,18.35
2023-01-07T23:55:57.682Z,18.03
2023-01-07T23:59:02.835Z,19.35
